createdAt,value
2019-02-14T00:02:19.214Z,8.93
2019-02-14T00:04:54.127Z,8.43
2019-02-14T00:07:27.427Z,9.30
2019-02-14T00:10:01.303Z,8.93
2019-02-14T00:12:34.621Z,8.23
2019-02-14T00:15:13.053Z,9.13
2019-02-14T00:17:46.375Z,8.70
2019-02-14T00:20:19.668Z,9.83
2019-02-14T00:22:52.967Z,8.87
2019-02-14T00:25:26.998Z,9.83
2019-02-14T00:28:00.293Z,9.57
2019-02-14T00:30:33.665Z,8.70
2019-02-14T00:33:06.965Z,9.77
2019-02-14T00:35:40.258Z,8.77
2019-02-14T00:38:14.433Z,9.27
2019-02-14T00:40:49.209Z,8.77
2019-02-14T00:43:22.538Z,9.57
2019-02-14T00:45:56.162Z,9.17
2019-02-14T00:48:29.462Z,9.07
2019-02-14T00:51:02.814Z,10.07
2019-02-14T00:53:36.126Z,10.47
2019-02-14T00:56:09.413Z,11.70
2019-02-14T00:58:43.436Z,12.10
2019-02-14T01:01:16.709Z,12.43
2019-02-14T01:03:51.667Z,11.77
2019-02-14T01:06:24.974Z,10.60
2019-02-14T01:08:58.305Z,10.43
2019-02-14T01:11:31.664Z,10.17
2019-02-14T01:14:05.038Z,9.00
2019-02-14T01:16:38.892Z,9.13
2019-02-14T01:19:12.524Z,8.47
2019-02-14T01:21:45.791Z,8.60
2019-02-14T01:24:19.126Z,7.70
2019-02-14T01:26:52.435Z,8.70
2019-02-14T01:29:25.746Z,9.00
2019-02-14T01:31:59.027Z,9.90
2019-02-14T01:34:32.343Z,9.43
2019-02-14T01:37:05.643Z,10.47
2019-02-14T01:39:38.948Z,11.90
2019-02-14T01:42:12.250Z,11.03
2019-02-14T01:44:45.563Z,11.27
2019-02-14T01:47:18.847Z,11.13
2019-02-14T01:49:52.143Z,11.03
2019-02-14T01:52:25.439Z,10.33
2019-02-14T01:54:58.734Z,10.20
2019-02-14T01:57:32.035Z,10.60
2019-02-14T02:00:10.243Z,10.43
2019-02-14T02:02:43.640Z,9.53
2019-02-14T02:05:16.931Z,9.40
2019-02-14T02:07:50.227Z,10.33
2019-02-14T02:10:24.364Z,9.93
2019-02-14T02:12:58.431Z,10.03
2019-02-14T02:15:31.713Z,9.87
2019-02-14T02:18:05.010Z,10.33
2019-02-14T02:20:38.310Z,10.47
2019-02-14T02:23:11.612Z,9.73
2019-02-14T02:25:45.477Z,10.20
2019-02-14T02:28:18.882Z,10.13
2019-02-14T02:30:52.176Z,10.03
2019-02-14T02:33:25.535Z,9.40
2019-02-14T02:36:00.712Z,10.00
2019-02-14T02:38:33.826Z,10.77
2019-02-14T02:41:07.100Z,11.30
2019-02-14T02:43:40.412Z,10.90
2019-02-14T02:46:13.686Z,10.63
2019-02-14T02:48:46.977Z,11.37
2019-02-14T02:51:20.278Z,11.63
2019-02-14T02:53:54.129Z,10.63
2019-02-14T02:56:27.431Z,11.53
2019-02-14T02:59:01.388Z,11.97
2019-02-14T03:01:34.671Z,11.80
2019-02-14T03:04:08.533Z,11.60
2019-02-14T03:06:41.818Z,10.33
2019-02-14T03:09:15.106Z,13.70
2019-02-14T03:11:48.396Z,13.83
2019-02-14T03:14:21.689Z,10.70
2019-02-14T03:16:56.603Z,10.77
2019-02-14T03:19:29.886Z,11.60
2019-02-14T03:22:03.182Z,11.80
2019-02-14T03:24:36.706Z,10.73
2019-02-14T03:27:10.004Z,11.53
2019-02-14T03:29:43.298Z,10.67
2019-02-14T03:32:16.570Z,10.87
2019-02-14T03:34:49.863Z,11.77
2019-02-14T03:37:23.762Z,10.97
2019-02-14T03:39:57.068Z,10.90
2019-02-14T03:42:30.356Z,10.90
2019-02-14T03:45:05.128Z,10.83
2019-02-14T03:47:39.657Z,11.33
2019-02-14T03:50:14.961Z,10.43
2019-02-14T03:52:48.244Z,11.07
2019-02-14T03:55:21.539Z,11.40
2019-02-14T03:57:54.823Z,10.57
2019-02-14T04:00:28.125Z,10.10
2019-02-14T04:03:01.413Z,10.20
2019-02-14T04:05:34.713Z,10.40
2019-02-14T04:08:07.997Z,9.77
2019-02-14T04:10:41.291Z,10.13
2019-02-14T04:13:14.574Z,10.23
2019-02-14T04:15:47.867Z,10.60
2019-02-14T04:18:21.159Z,11.17
2019-02-14T04:20:55.021Z,10.73
2019-02-14T04:23:28.297Z,9.97
2019-02-14T04:26:03.239Z,10.80
2019-02-14T04:28:36.532Z,10.40
2019-02-14T04:31:09.870Z,10.60
2019-02-14T04:33:43.155Z,10.17
2019-02-14T04:36:16.461Z,10.37
2019-02-14T04:38:49.763Z,10.40
2019-02-14T04:41:23.066Z,10.30
2019-02-14T04:43:56.370Z,9.53
2019-02-14T04:46:29.674Z,9.80
2019-02-14T04:49:02.977Z,11.07
2019-02-14T04:51:36.270Z,11.10
2019-02-14T04:54:10.120Z,10.10
2019-02-14T04:56:43.403Z,9.93
2019-02-14T04:59:16.681Z,9.67
2019-02-14T05:01:49.985Z,10.10
2019-02-14T05:04:23.280Z,9.77
2019-02-14T05:06:56.580Z,9.70
2019-02-14T05:09:29.879Z,9.90
2019-02-14T05:12:03.157Z,9.47
2019-02-14T05:14:36.437Z,9.43
2019-02-14T05:17:09.747Z,10.77
2019-02-14T05:19:43.037Z,10.03
2019-02-14T05:22:16.324Z,9.67
2019-02-14T05:24:51.341Z,10.23
2019-02-14T05:27:24.625Z,10.53
2019-02-14T05:29:57.934Z,10.20
2019-02-14T05:32:31.214Z,9.80
2019-02-14T05:35:05.441Z,9.73
2019-02-14T05:37:38.721Z,10.30
2019-02-14T05:40:12.184Z,10.00
2019-02-14T05:42:45.464Z,10.03
2019-02-14T05:45:18.781Z,10.57
2019-02-14T05:47:52.054Z,10.10
2019-02-14T05:50:25.365Z,9.90
2019-02-14T05:52:58.662Z,10.17
2019-02-14T05:55:32.033Z,10.47
2019-02-14T05:58:05.332Z,11.37
2019-02-14T06:00:38.610Z,10.57
2019-02-14T06:03:11.912Z,14.17
2019-02-14T06:05:45.212Z,14.20
2019-02-14T06:08:18.499Z,14.40
2019-02-14T06:10:51.825Z,14.67
2019-02-14T06:13:25.100Z,14.23
2019-02-14T06:15:58.421Z,16.43
2019-02-14T06:18:31.690Z,15.83
2019-02-14T06:21:04.983Z,15.07
2019-02-14T06:23:38.262Z,15.13
2019-02-14T06:26:11.581Z,14.70
2019-02-14T06:28:44.862Z,13.03
2019-02-14T06:31:18.167Z,12.97
2019-02-14T06:33:51.459Z,12.97
2019-02-14T06:36:25.853Z,13.00
2019-02-14T06:38:59.170Z,12.63
2019-02-14T06:41:33.562Z,12.87
2019-02-14T06:44:06.835Z,13.27
2019-02-14T06:46:40.147Z,13.67
2019-02-14T06:49:13.428Z,12.00
2019-02-14T06:51:46.743Z,10.63
2019-02-14T06:54:20.025Z,11.20
2019-02-14T06:56:55.641Z,10.07
2019-02-14T06:59:28.935Z,11.07
2019-02-14T07:02:02.251Z,12.73
2019-02-14T07:04:35.539Z,13.70
2019-02-14T07:07:08.837Z,14.00
2019-02-14T07:09:42.125Z,14.80
2019-02-14T07:12:15.439Z,13.37
2019-02-14T07:14:49.732Z,14.10
2019-02-14T07:17:23.030Z,13.87
2019-02-14T07:19:56.314Z,15.47
2019-02-14T07:22:31.151Z,12.47
2019-02-14T07:25:06.458Z,12.43
2019-02-14T07:27:39.761Z,11.97
2019-02-14T07:30:19.489Z,14.07
2019-02-14T07:32:52.780Z,10.23
2019-02-14T07:35:26.093Z,13.10
2019-02-14T07:37:59.498Z,11.97
2019-02-14T07:40:32.740Z,12.40
2019-02-14T07:43:06.036Z,12.13
2019-02-14T07:45:39.327Z,11.80
2019-02-14T07:48:12.619Z,11.47
2019-02-14T07:50:45.890Z,11.73
2019-02-14T07:53:19.195Z,11.17
2019-02-14T07:55:52.481Z,12.37
2019-02-14T07:58:25.798Z,12.17
2019-02-14T08:00:59.073Z,12.77
2019-02-14T08:03:32.399Z,14.20
2019-02-14T08:06:05.697Z,13.40
2019-02-14T08:08:39.007Z,13.67
2019-02-14T08:11:12.293Z,13.27
2019-02-14T08:13:45.587Z,13.50
2019-02-14T08:16:18.880Z,13.00
2019-02-14T08:18:53.153Z,13.50
2019-02-14T08:21:26.426Z,13.63
2019-02-14T08:23:59.718Z,14.37
2019-02-14T08:26:33.011Z,15.27
2019-02-14T08:29:06.357Z,15.57
2019-02-14T08:31:39.646Z,14.53
2019-02-14T08:34:13.029Z,13.70
2019-02-14T08:36:46.296Z,13.47
2019-02-14T08:39:20.635Z,14.70
2019-02-14T08:41:53.929Z,15.60
2019-02-14T08:44:27.228Z,17.17
2019-02-14T08:47:00.519Z,16.37
2019-02-14T08:49:35.212Z,16.17
2019-02-14T08:52:08.596Z,15.03
2019-02-14T08:54:41.877Z,14.33
2019-02-14T08:57:16.787Z,14.93
2019-02-14T08:59:50.083Z,15.77
2019-02-14T09:02:23.386Z,18.73
2019-02-14T09:04:56.668Z,18.00
2019-02-14T09:07:30.058Z,17.50
2019-02-14T09:10:03.616Z,18.27
2019-02-14T09:12:36.918Z,18.77
2019-02-14T09:15:12.375Z,20.00
2019-02-14T09:17:45.694Z,17.57
2019-02-14T09:20:20.424Z,14.43
2019-02-14T09:22:53.718Z,13.27
2019-02-14T09:25:27.000Z,12.20
2019-02-14T09:28:03.291Z,9.03
2019-02-14T09:30:36.593Z,9.37
2019-02-14T09:33:09.854Z,8.93
2019-02-14T09:35:43.157Z,9.73
2019-02-14T09:38:16.242Z,9.07
2019-02-14T09:40:49.541Z,9.67
2019-02-14T09:43:29.564Z,10.13
2019-02-14T09:45:58.795Z,10.23
2019-02-14T09:48:32.140Z,11.40
2019-02-14T09:51:05.411Z,10.50
2019-02-14T09:53:38.700Z,10.47
2019-02-14T09:56:12.023Z,10.23
2019-02-14T09:58:45.333Z,10.00
2019-02-14T10:01:18.640Z,10.00
2019-02-14T10:03:53.195Z,11.13
2019-02-14T10:06:26.484Z,10.70
2019-02-14T10:09:00.803Z,10.83
2019-02-14T10:11:34.342Z,10.70
2019-02-14T10:14:07.616Z,11.00
2019-02-14T10:16:40.918Z,10.57
2019-02-14T10:19:14.353Z,9.63
2019-02-14T10:21:47.652Z,10.00
2019-02-14T10:24:20.936Z,9.33
2019-02-14T10:26:54.623Z,9.93
2019-02-14T10:29:27.897Z,10.87
2019-02-14T10:32:01.207Z,10.47
2019-02-14T10:34:34.477Z,10.90
2019-02-14T10:37:07.805Z,11.03
2019-02-14T10:39:41.095Z,10.50
2019-02-14T10:42:14.441Z,10.47
2019-02-14T10:44:47.713Z,10.90
2019-02-14T10:47:21.008Z,10.90
2019-02-14T10:49:55.341Z,11.07
2019-02-14T10:52:28.614Z,10.90
2019-02-14T10:55:01.939Z,10.50
2019-02-14T10:57:35.228Z,10.57
2019-02-14T11:00:20.537Z,11.43
2019-02-14T11:02:53.893Z,11.00
2019-02-14T11:05:27.737Z,10.73
2019-02-14T11:08:01.031Z,11.17
2019-02-14T11:10:34.322Z,10.20
2019-02-14T11:13:07.615Z,12.03
2019-02-14T11:15:40.918Z,10.57
2019-02-14T11:18:14.200Z,10.60
2019-02-14T11:20:47.501Z,10.23
2019-02-14T11:23:21.790Z,11.03
2019-02-14T11:25:55.082Z,11.13
2019-02-14T11:28:28.362Z,10.63
2019-02-14T11:31:01.649Z,11.13
2019-02-14T11:33:34.917Z,11.00
2019-02-14T11:36:08.212Z,11.17
2019-02-14T11:38:42.530Z,10.93
2019-02-14T11:41:15.820Z,11.67
2019-02-14T11:43:49.135Z,10.97
2019-02-14T11:46:22.406Z,10.80
2019-02-14T11:48:55.689Z,10.37
2019-02-14T11:51:28.971Z,11.10
2019-02-14T11:54:02.262Z,11.00
2019-02-14T11:56:35.567Z,10.00
2019-02-14T11:59:08.843Z,10.47
2019-02-14T12:01:42.146Z,10.17
2019-02-14T12:04:15.429Z,10.50
2019-02-14T12:06:48.822Z,10.57
2019-02-14T12:09:22.191Z,10.27
2019-02-14T12:11:55.498Z,10.83
2019-02-14T12:14:28.790Z,10.60
2019-02-14T12:17:02.095Z,11.13
2019-02-14T12:19:35.367Z,10.53
2019-02-14T12:22:08.678Z,11.37
2019-02-14T12:24:41.958Z,11.07
2019-02-14T12:27:15.262Z,10.80
2019-02-14T12:29:48.548Z,11.30
2019-02-14T12:32:21.946Z,11.33
2019-02-14T12:34:55.225Z,10.83
2019-02-14T12:37:28.519Z,11.43
2019-02-14T12:40:01.822Z,11.08
2019-02-14T12:42:35.112Z,11.60
2019-02-14T12:45:25.752Z,11.40
2019-02-14T12:47:58.280Z,11.87
2019-02-14T12:50:31.564Z,11.27
2019-02-14T12:53:04.876Z,12.17
2019-02-14T12:55:38.215Z,10.80
2019-02-14T12:58:11.521Z,11.53
2019-02-14T13:00:44.814Z,11.80
2019-02-14T13:03:18.130Z,11.50
2019-02-14T13:05:51.473Z,11.67
2019-02-14T13:08:26.026Z,11.47
2019-02-14T13:10:59.296Z,12.80
2019-02-14T13:13:32.604Z,11.37
2019-02-14T13:16:05.930Z,12.57
2019-02-14T13:18:39.238Z,12.30
2019-02-14T13:21:12.527Z,13.03
2019-02-14T13:23:46.411Z,11.77
2019-02-14T13:26:19.714Z,11.73
2019-02-14T13:28:53.025Z,11.40
2019-02-14T13:31:32.078Z,11.03
2019-02-14T13:34:01.385Z,11.67
2019-02-14T13:36:34.634Z,11.97
2019-02-14T13:39:08.019Z,12.43
2019-02-14T13:41:41.276Z,12.43
2019-02-14T13:44:14.779Z,12.27
2019-02-14T13:46:48.521Z,12.93
2019-02-14T13:49:21.836Z,12.63
2019-02-14T13:51:55.091Z,12.40
2019-02-14T13:54:28.973Z,12.20
2019-02-14T13:57:02.334Z,12.60
2019-02-14T13:59:35.649Z,12.50
2019-02-14T14:02:10.574Z,13.17
2019-02-14T14:04:44.875Z,11.93
2019-02-14T14:07:18.426Z,12.60
2019-02-14T14:09:51.685Z,12.90
2019-02-14T14:12:24.826Z,12.27
2019-02-14T14:14:58.242Z,12.87
2019-02-14T14:17:31.530Z,13.70
2019-02-14T14:20:06.477Z,13.23
2019-02-14T14:22:40.946Z,13.13
2019-02-14T14:25:14.274Z,12.87
2019-02-14T14:27:47.566Z,12.83
2019-02-14T14:30:20.864Z,11.97
2019-02-14T14:32:54.141Z,13.10
2019-02-14T14:35:27.442Z,12.30
2019-02-14T14:38:00.729Z,12.80
2019-02-14T14:40:34.045Z,13.70
2019-02-14T14:43:18.020Z,13.63
2019-02-14T14:46:01.816Z,12.30
2019-02-14T14:48:36.745Z,13.07
2019-02-14T14:51:10.132Z,13.13
2019-02-14T14:53:43.420Z,12.37
2019-02-14T14:56:16.721Z,12.43
2019-02-14T14:58:50.176Z,12.60
2019-02-14T15:01:23.471Z,12.93
2019-02-14T15:03:56.766Z,13.33
2019-02-14T15:06:30.111Z,12.63
2019-02-14T15:09:03.772Z,12.77
2019-02-14T15:11:37.090Z,12.97
2019-02-14T15:14:11.711Z,13.60
2019-02-14T15:16:45.109Z,13.50
2019-02-14T15:19:18.399Z,13.10
2019-02-14T15:21:51.734Z,13.07
2019-02-14T15:24:25.017Z,13.37
2019-02-14T15:26:58.346Z,14.53
2019-02-14T15:29:31.654Z,14.10
2019-02-14T15:32:04.988Z,12.07
2019-02-14T15:34:38.271Z,13.80
2019-02-14T15:37:12.714Z,13.90
2019-02-14T15:39:46.589Z,13.73
2019-02-14T15:42:19.916Z,14.67
2019-02-14T15:44:53.204Z,13.97
2019-02-14T15:47:26.500Z,15.37
2019-02-14T15:49:59.774Z,14.83
2019-02-14T15:52:33.168Z,14.73
2019-02-14T15:55:07.678Z,15.13
2019-02-14T15:57:42.911Z,16.20
2019-02-14T16:00:16.051Z,15.80
2019-02-14T16:02:50.442Z,16.30
2019-02-14T16:05:24.423Z,14.13
2019-02-14T16:08:00.307Z,14.93
2019-02-14T16:10:33.602Z,15.37
2019-02-14T16:13:08.083Z,15.10
2019-02-14T16:15:42.024Z,14.83
2019-02-14T16:18:15.340Z,16.10
2019-02-14T16:20:48.612Z,17.60
2019-02-14T16:23:21.943Z,17.00
2019-02-14T16:25:55.238Z,16.70
2019-02-14T16:28:28.553Z,16.83
2019-02-14T16:31:01.863Z,16.97
2019-02-14T16:33:35.212Z,16.77
2019-02-14T16:36:08.483Z,16.70
2019-02-14T16:38:41.789Z,17.40
2019-02-14T16:41:15.101Z,19.43
2019-02-14T16:43:48.375Z,18.33
2019-02-14T16:46:21.696Z,16.77
2019-02-14T16:48:54.984Z,18.23
2019-02-14T16:51:28.316Z,20.37
2019-02-14T16:54:01.610Z,18.73
2019-02-14T16:56:34.961Z,16.97
2019-02-14T16:59:08.249Z,16.90
2019-02-14T17:01:41.556Z,19.00
2019-02-14T17:04:15.687Z,19.73
2019-02-14T17:06:48.994Z,19.57
2019-02-14T17:09:22.294Z,24.13
2019-02-14T17:11:55.585Z,34.03
2019-02-14T17:14:28.870Z,46.93
2019-02-14T17:17:02.172Z,22.93
2019-02-14T17:19:35.998Z,146.00
2019-02-14T17:22:10.105Z,182.13
2019-02-14T17:24:43.396Z,60.57
2019-02-14T17:27:16.721Z,54.73
2019-02-14T17:29:51.648Z,23.47
2019-02-14T17:32:24.953Z,45.67
2019-02-14T17:34:58.238Z,81.13
2019-02-14T17:37:31.591Z,38.07
2019-02-14T17:40:07.918Z,39.97
2019-02-14T17:42:41.225Z,41.10
2019-02-14T17:45:14.515Z,42.73
2019-02-14T17:47:47.833Z,29.27
2019-02-14T17:50:21.128Z,21.53
2019-02-14T17:52:54.445Z,23.63
2019-02-14T17:55:27.794Z,22.60
2019-02-14T17:58:01.090Z,22.07
2019-02-14T18:00:34.398Z,22.63
2019-02-14T18:03:07.716Z,22.27
2019-02-14T18:05:40.998Z,21.33
2019-02-14T18:08:14.367Z,22.63
2019-02-14T18:10:54.768Z,23.00
2019-02-14T18:13:22.680Z,21.03
2019-02-14T18:15:55.985Z,23.27
2019-02-14T18:18:29.309Z,22.73
2019-02-14T18:21:02.618Z,21.77
2019-02-14T18:23:35.951Z,20.30
2019-02-14T18:26:09.347Z,21.63
2019-02-14T18:28:42.661Z,20.93
2019-02-14T18:31:15.935Z,20.07
2019-02-14T18:33:49.272Z,21.37
2019-02-14T18:36:22.599Z,21.77
2019-02-14T18:38:55.922Z,20.43
2019-02-14T18:41:29.251Z,19.93
2019-02-14T18:44:02.587Z,21.63
2019-02-14T18:46:35.892Z,20.80
2019-02-14T18:49:09.232Z,21.50
2019-02-14T18:51:42.563Z,21.53
2019-02-14T18:54:15.884Z,21.93
2019-02-14T18:56:49.232Z,20.10
2019-02-14T18:59:22.547Z,18.17
2019-02-14T19:01:56.587Z,18.90
2019-02-14T19:04:30.008Z,18.83
2019-02-14T19:07:03.480Z,17.23
2019-02-14T19:09:36.824Z,18.47
2019-02-14T19:12:11.041Z,18.70
2019-02-14T19:14:44.388Z,18.77
2019-02-14T19:17:17.691Z,19.93
2019-02-14T19:19:51.023Z,22.83
2019-02-14T19:22:24.331Z,19.37
2019-02-14T19:24:57.673Z,20.37
2019-02-14T19:27:31.075Z,21.03
2019-02-14T19:30:06.774Z,20.93
2019-02-14T19:32:40.136Z,21.73
2019-02-14T19:35:22.423Z,20.33
2019-02-14T19:37:48.513Z,19.47
2019-02-14T19:40:21.832Z,19.73
2019-02-14T19:42:55.190Z,21.70
2019-02-14T19:45:36.407Z,19.87
2019-02-14T19:48:03.576Z,20.00
2019-02-14T19:50:36.961Z,21.40
2019-02-14T19:53:10.344Z,20.90
2019-02-14T19:55:43.639Z,20.40
2019-02-14T19:58:16.970Z,19.10
2019-02-14T20:00:50.419Z,20.00
2019-02-14T20:03:23.709Z,19.57
2019-02-14T20:05:57.043Z,19.93
2019-02-14T20:08:30.376Z,19.10
2019-02-14T20:11:03.763Z,19.53
2019-02-14T20:13:37.063Z,20.60
2019-02-14T20:16:10.400Z,21.77
2019-02-14T20:18:43.719Z,23.57
2019-02-14T20:21:17.013Z,22.87
2019-02-14T20:23:50.324Z,23.17
2019-02-14T20:26:23.609Z,21.77
2019-02-14T20:28:56.930Z,21.27
2019-02-14T20:31:31.906Z,21.87
2019-02-14T20:34:05.223Z,21.70
2019-02-14T20:36:38.520Z,19.37
2019-02-14T20:39:11.828Z,20.10
2019-02-14T20:41:46.549Z,18.87
2019-02-14T20:44:19.941Z,20.40
2019-02-14T20:46:53.208Z,20.77
2019-02-14T20:49:27.903Z,22.13
2019-02-14T20:52:01.178Z,19.83
2019-02-14T20:54:34.569Z,20.83
2019-02-14T20:57:08.326Z,19.97
2019-02-14T20:59:41.735Z,22.87
2019-02-14T21:02:15.076Z,20.63
2019-02-14T21:04:48.436Z,21.57
2019-02-14T21:07:21.662Z,19.90
2019-02-14T21:09:55.973Z,20.73
2019-02-14T21:12:29.261Z,21.43
2019-02-14T21:15:02.632Z,21.63
2019-02-14T21:17:35.949Z,20.97
2019-02-14T21:20:11.601Z,22.10
2019-02-14T21:22:44.915Z,24.43
2019-02-14T21:25:22.394Z,24.40
2019-02-14T21:27:54.506Z,23.10
2019-02-14T21:30:27.829Z,22.03
2019-02-14T21:33:01.167Z,21.67
2019-02-14T21:35:34.475Z,21.57
2019-02-14T21:38:07.805Z,27.03
2019-02-14T21:40:41.368Z,22.93
2019-02-14T21:43:14.719Z,19.97
2019-02-14T21:45:48.042Z,20.57
2019-02-14T21:48:21.347Z,21.80
2019-02-14T21:50:54.671Z,24.37
2019-02-14T21:53:27.971Z,21.77
2019-02-14T21:56:01.319Z,23.30
2019-02-14T21:58:34.626Z,23.50
2019-02-14T22:01:08.347Z,23.57
2019-02-14T22:03:41.798Z,22.77
2019-02-14T22:06:15.109Z,24.47
2019-02-14T22:08:48.443Z,23.80
2019-02-14T22:11:21.767Z,24.67
2019-02-14T22:13:55.086Z,23.47
2019-02-14T22:16:28.407Z,24.10
2019-02-14T22:19:01.714Z,24.57
2019-02-14T22:21:35.063Z,25.27
2019-02-14T22:24:08.375Z,25.03
2019-02-14T22:26:41.702Z,27.43
2019-02-14T22:29:15.066Z,25.87
2019-02-14T22:31:48.365Z,26.57
2019-02-14T22:34:21.695Z,27.13
2019-02-14T22:36:54.986Z,25.63
2019-02-14T22:39:28.391Z,27.77
2019-02-14T22:42:01.698Z,28.93
2019-02-14T22:44:35.024Z,25.67
2019-02-14T22:47:08.307Z,26.00
2019-02-14T22:49:41.676Z,26.50
2019-02-14T22:52:14.981Z,28.97
2019-02-14T22:54:48.307Z,28.87
2019-02-14T22:57:21.603Z,28.70
2019-02-14T22:59:54.940Z,30.00
2019-02-14T23:02:28.299Z,28.80
2019-02-14T23:05:01.683Z,25.03
2019-02-14T23:07:34.998Z,26.40
2019-02-14T23:10:08.416Z,27.13
2019-02-14T23:12:41.726Z,23.10
2019-02-14T23:15:15.443Z,24.80
2019-02-14T23:17:48.761Z,24.33
2019-02-14T23:20:22.154Z,24.40
2019-02-14T23:22:55.453Z,23.70
2019-02-14T23:25:28.772Z,24.23
2019-02-14T23:28:02.069Z,25.80
2019-02-14T23:30:35.382Z,21.80
2019-02-14T23:33:08.709Z,23.43
2019-02-14T23:35:42.058Z,24.23
2019-02-14T23:38:15.351Z,22.47
2019-02-14T23:40:48.682Z,24.27
2019-02-14T23:43:22.016Z,23.10
2019-02-14T23:45:55.325Z,20.50
2019-02-14T23:48:28.624Z,21.07
2019-02-14T23:51:03.550Z,20.40
2019-02-14T23:53:37.031Z,20.27
2019-02-14T23:56:10.364Z,21.37
2019-02-14T23:58:43.656Z,20.30
